createdAt,value
2023-02-25T00:05:02.003Z,99441.38
2023-02-25T00:10:03.868Z,99436.72
2023-02-25T00:15:06.215Z,99444.41
2023-02-25T00:20:09.614Z,99445.22
2023-02-25T00:25:11.141Z,99447.13
2023-02-25T00:30:13.148Z,99456.88
2023-02-25T00:35:14.755Z,99461.97
2023-02-25T00:40:16.730Z,99463.25
2023-02-25T00:45:18.201Z,99455.34
2023-02-25T00:50:19.714Z,99455.16
2023-02-25T00:55:21.293Z,99459.28
2023-02-25T01:00:22.841Z,99461.28
2023-02-25T01:05:24.380Z,99469.59
2023-02-25T01:10:26.140Z,99470.53
2023-02-25T01:15:30.807Z,99461.63
2023-02-25T01:20:33.151Z,99459.25
2023-02-25T01:25:34.791Z,99457.56
2023-02-25T01:30:37.108Z,99462.03
2023-02-25T01:35:38.556Z,99456.16
2023-02-25T01:40:40.025Z,99457.13
2023-02-25T01:45:43.685Z,99454.88
2023-02-25T01:50:57.586Z,99465.25
2023-02-25T01:55:59.666Z,99462.72
2023-02-25T02:01:01.287Z,99454.41
2023-02-25T02:06:24.171Z,99459.41
2023-02-25T02:11:26.046Z,99459.41
2023-02-25T02:16:52.337Z,99456.56
2023-02-25T02:22:08.161Z,99455.34
2023-02-25T02:27:15.490Z,99449.66
2023-02-25T02:32:25.584Z,99462.03
2023-02-25T02:38:06.308Z,99456.06
2023-02-25T02:43:26.582Z,99457.03
2023-02-25T02:48:37.382Z,99460.53
2023-02-25T02:53:53.733Z,99458.50
2023-02-25T02:59:04.809Z,99469.19
2023-02-25T03:04:14.201Z,99467.09
2023-02-25T03:09:19.917Z,99473.19
2023-02-25T03:14:21.320Z,99480.47
2023-02-25T03:19:46.990Z,99482.34
2023-02-25T03:25:02.006Z,99472.63
2023-02-25T03:30:11.600Z,99482.72
2023-02-25T03:35:17.264Z,99480.22
2023-02-25T03:40:20.463Z,99490.22
2023-02-25T03:45:23.513Z,99500.22
2023-02-25T03:50:29.985Z,99502.19
2023-02-25T03:55:31.682Z,99504.31
2023-02-25T04:00:33.944Z,99510.75
2023-02-25T04:05:35.650Z,99514.19
2023-02-25T04:10:37.209Z,99513.91
2023-02-25T04:15:39.179Z,99520.13
2023-02-25T04:20:40.808Z,99517.41
2023-02-25T04:25:43.291Z,99516.81
2023-02-25T04:30:44.899Z,99515.94
2023-02-25T04:35:46.469Z,99514.03
2023-02-25T04:40:47.893Z,99515.81
2023-02-25T04:45:49.349Z,99530.75
2023-02-25T04:50:51.929Z,99525.72
2023-02-25T04:55:53.487Z,99521.94
2023-02-25T05:00:54.955Z,99529.31
2023-02-25T05:05:56.481Z,99539.00
2023-02-25T05:10:58.081Z,99539.09
2023-02-25T05:16:08.141Z,99538.41
2023-02-25T05:21:11.879Z,99543.03
2023-02-25T05:26:14.741Z,99542.69
2023-02-25T05:31:16.483Z,99546.97
2023-02-25T05:36:18.786Z,99534.94
2023-02-25T05:41:20.335Z,99517.91
2023-02-25T05:46:22.372Z,99523.53
2023-02-25T05:51:24.201Z,99522.69
2023-02-25T05:56:26.945Z,99520.41
2023-02-25T06:01:29.138Z,99520.53
2023-02-25T06:06:31.952Z,99523.03
2023-02-25T06:11:33.423Z,99542.94
2023-02-25T06:16:35.028Z,99546.38
2023-02-25T06:21:36.628Z,99543.50
2023-02-25T06:26:38.095Z,99550.81
2023-02-25T06:31:40.026Z,99562.94
2023-02-25T06:36:41.618Z,99565.78
2023-02-25T06:41:43.105Z,99573.44
2023-02-25T06:46:44.557Z,99573.91
2023-02-25T06:51:45.974Z,99587.47
2023-02-25T06:56:47.545Z,99593.91
2023-02-25T07:01:49.070Z,99585.34
2023-02-25T07:06:50.710Z,99583.19
2023-02-25T07:11:52.264Z,99597.97
2023-02-25T07:16:53.963Z,99604.63
2023-02-25T07:21:55.489Z,99610.59
2023-02-25T07:26:57.042Z,99616.53
2023-02-25T07:31:58.647Z,99616.78
2023-02-25T07:37:00.296Z,99617.75
2023-02-25T07:42:01.793Z,99631.00
2023-02-25T07:47:03.336Z,99629.69
2023-02-25T07:52:04.757Z,99640.28
2023-02-25T07:57:06.333Z,99637.16
2023-02-25T08:02:08.178Z,99645.16
2023-02-25T08:07:09.694Z,99638.97
2023-02-25T08:12:11.165Z,99654.13
2023-02-25T08:17:12.833Z,99636.84
2023-02-25T08:22:14.320Z,99642.78
2023-02-25T08:27:15.845Z,99634.09
2023-02-25T08:32:17.644Z,99625.50
2023-02-25T08:37:19.261Z,99645.63
2023-02-25T08:42:20.717Z,99652.53
2023-02-25T08:47:22.185Z,99647.75
2023-02-25T08:52:23.906Z,99648.63
2023-02-25T08:57:25.330Z,99648.75
2023-02-25T09:02:26.850Z,99666.47
2023-02-25T09:07:28.523Z,99654.34
2023-02-25T09:12:30.853Z,99654.63
2023-02-25T09:17:32.408Z,99650.69
2023-02-25T09:22:44.753Z,99648.19
2023-02-25T09:27:46.233Z,99643.53
2023-02-25T09:32:47.852Z,99647.84
2023-02-25T09:37:49.582Z,99653.78
2023-02-25T09:43:06.298Z,99636.59
2023-02-25T09:48:18.965Z,99641.34
2023-02-25T09:53:26.897Z,99638.88
2023-02-25T09:58:43.758Z,99643.03
2023-02-25T10:03:54.652Z,99642.69
2023-02-25T10:09:28.810Z,99640.91
2023-02-25T10:14:55.002Z,99655.94
2023-02-25T10:19:59.167Z,99654.84
2023-02-25T10:25:18.673Z,99655.34
2023-02-25T10:30:25.390Z,99647.72
2023-02-25T10:35:32.101Z,99647.22
2023-02-25T10:40:33.798Z,99645.72
2023-02-25T10:45:36.254Z,99640.31
2023-02-25T10:50:45.922Z,99639.84
2023-02-25T10:55:51.204Z,99630.91
2023-02-25T11:01:00.160Z,99630.66
2023-02-25T11:06:17.290Z,99632.47
2023-02-25T11:11:32.250Z,99632.03
2023-02-25T11:16:42.045Z,99646.13
2023-02-25T11:21:44.758Z,99666.47
2023-02-25T11:26:49.412Z,99677.84
2023-02-25T11:31:55.901Z,99686.66
2023-02-25T11:37:24.435Z,99706.13
2023-02-25T11:42:27.793Z,99703.00
2023-02-25T11:47:36.617Z,99703.59
2023-02-25T11:52:51.628Z,99695.50
2023-02-25T11:58:10.615Z,99683.91
2023-02-25T12:03:33.677Z,99675.59
2023-02-25T12:08:48.558Z,99657.94
2023-02-25T12:14:30.689Z,99650.41
2023-02-25T12:19:55.501Z,99644.03
2023-02-25T12:25:27.365Z,99657.78
2023-02-25T12:30:41.051Z,99648.00
2023-02-25T12:35:51.920Z,99650.00
2023-02-25T12:41:05.329Z,99658.31
2023-02-25T13:02:57.374Z,99659.16
2023-02-25T13:08:32.773Z,99663.66
2023-02-25T13:14:00.632Z,99692.78
2023-02-25T13:19:16.983Z,99705.28
2023-02-25T13:24:21.313Z,99706.28
2023-02-25T13:29:34.656Z,99697.84
2023-02-25T13:34:49.886Z,99693.25
2023-02-25T13:40:28.790Z,99696.81
2023-02-25T13:46:15.553Z,99701.00
2023-02-25T13:51:34.488Z,99703.88
2023-02-25T13:57:13.406Z,99708.47
2023-02-25T14:02:41.609Z,99695.50
2023-02-25T14:07:58.425Z,99694.31
2023-02-25T14:13:24.811Z,99698.00
2023-02-25T14:18:38.360Z,99694.44
2023-02-25T14:24:01.763Z,99694.09
2023-02-25T14:29:37.462Z,99686.94
2023-02-25T14:34:46.490Z,99698.03
2023-02-25T14:40:21.249Z,99708.59
2023-02-25T14:45:32.281Z,99725.56
2023-02-25T14:50:41.915Z,99738.47
2023-02-25T14:56:06.602Z,99730.56
2023-02-25T15:01:14.016Z,99735.22
2023-02-25T15:06:50.473Z,99740.47
2023-02-25T15:12:01.100Z,99741.09
2023-02-25T15:17:11.443Z,99751.06
2023-02-25T15:22:13.901Z,99757.53
2023-02-25T15:27:38.328Z,99767.09
2023-02-25T15:32:51.852Z,99783.66
2023-02-25T15:38:09.450Z,99800.47
2023-02-25T15:43:13.878Z,99806.91
2023-02-25T15:48:18.132Z,99803.84
2023-02-25T15:53:22.396Z,99811.56
2023-02-25T15:58:24.028Z,99813.25
2023-02-25T16:03:25.447Z,99818.72
2023-02-25T16:09:25.621Z,99834.06
2023-02-25T16:14:34.270Z,99836.44
2023-02-25T16:19:41.238Z,99846.28
2023-02-25T16:24:50.973Z,99845.66
2023-02-25T16:30:29.976Z,99857.72
2023-02-25T16:35:47.303Z,99870.13
2023-02-25T16:40:49.038Z,99875.34
2023-02-25T16:45:58.771Z,99890.56
2023-02-25T16:51:10.219Z,99900.78
2023-02-25T16:56:18.214Z,99905.44
2023-02-25T17:01:23.295Z,99917.34
2023-02-25T17:06:25.047Z,99923.44
2023-02-25T17:11:27.031Z,99929.53
2023-02-25T17:16:39.679Z,99938.44
2023-02-25T17:21:44.745Z,99950.41
2023-02-25T17:26:49.703Z,99954.38
2023-02-25T17:31:54.291Z,99966.25
2023-02-25T17:36:57.169Z,99977.22
2023-02-25T17:41:58.779Z,99983.81
2023-02-25T17:47:00.425Z,99994.97
2023-02-25T17:52:05.829Z,100000.34
2023-02-25T17:57:17.760Z,100004.41
2023-02-25T18:02:40.714Z,100007.38
2023-02-25T18:07:57.255Z,100017.22
2023-02-25T18:13:04.410Z,100027.81
2023-02-25T18:18:07.614Z,100035.50
2023-02-25T18:23:14.931Z,100033.56
2023-02-25T18:28:19.120Z,100045.31
2023-02-25T18:33:21.027Z,100042.88
2023-02-25T18:38:24.666Z,100053.28
2023-02-25T18:43:27.169Z,100058.25
2023-02-25T18:48:28.802Z,100060.13
2023-02-25T18:53:30.333Z,100063.19
2023-02-25T18:58:31.911Z,100063.09
2023-02-25T19:03:36.631Z,100075.69
2023-02-25T19:08:38.362Z,100086.47
2023-02-25T19:13:42.176Z,100090.59
2023-02-25T19:18:43.720Z,100100.75
2023-02-25T19:23:45.914Z,100107.69
2023-02-25T19:28:47.468Z,100110.13
2023-02-25T19:33:49.200Z,100118.91
2023-02-25T19:38:50.796Z,100125.34
2023-02-25T19:43:52.342Z,100128.13
2023-02-25T19:48:53.970Z,100136.44
2023-02-25T19:53:55.724Z,100157.16
2023-02-25T19:58:58.145Z,100157.94
2023-02-25T20:03:59.773Z,100162.97
2023-02-25T20:09:05.501Z,100166.22
2023-02-25T20:14:06.833Z,100178.16
2023-02-25T20:19:08.761Z,100168.94
2023-02-25T20:24:10.311Z,100177.22
2023-02-25T20:29:11.797Z,100179.69
2023-02-25T20:34:19.059Z,100183.31
2023-02-25T20:39:38.558Z,100190.88
2023-02-25T20:44:40.649Z,100186.34
2023-02-25T20:49:42.382Z,100190.59
2023-02-25T20:54:44.364Z,100198.69
2023-02-25T20:59:47.005Z,100202.06
2023-02-25T21:04:48.558Z,100215.69
2023-02-25T21:09:50.030Z,100230.34
2023-02-25T21:14:51.539Z,100235.91
2023-02-25T21:19:52.996Z,100248.34
2023-02-25T21:24:54.541Z,100239.75
2023-02-25T21:29:56.813Z,100235.44
2023-02-25T21:34:58.310Z,100234.75
2023-02-25T21:39:59.976Z,100252.19
2023-02-25T21:45:01.559Z,100248.47
2023-02-25T21:50:03.070Z,100257.81
2023-02-25T21:55:05.004Z,100260.94
2023-02-25T22:00:10.146Z,100260.47
2023-02-25T22:05:11.748Z,100268.97
2023-02-25T22:10:13.361Z,100261.47
2023-02-25T22:15:15.126Z,100274.66
2023-02-25T22:20:20.516Z,100273.53
2023-02-25T22:25:22.279Z,100266.81
2023-02-25T22:30:23.785Z,100276.03
2023-02-25T22:35:25.447Z,100273.94
2023-02-25T22:40:27.130Z,100279.16
2023-02-25T22:45:28.741Z,100275.34
2023-02-25T22:50:30.453Z,100286.22
2023-02-25T22:55:33.480Z,100289.53
2023-02-25T23:00:38.041Z,100298.19
2023-02-25T23:05:39.432Z,100301.97
2023-02-25T23:10:41.014Z,100301.97
2023-02-25T23:15:43.234Z,100297.03
2023-02-25T23:20:44.844Z,100299.19
2023-02-25T23:25:51.172Z,100302.47
2023-02-25T23:30:52.696Z,100302.72
2023-02-25T23:35:54.233Z,100296.28
2023-02-25T23:40:59.934Z,100302.78
2023-02-25T23:46:05.715Z,100306.91
2023-02-25T23:51:08.988Z,100298.19
2023-02-25T23:56:12.773Z,100300.06
